createdAt,value
2019-03-04T00:03:11.514Z,3.80
2019-03-04T00:08:11.158Z,4.23
2019-03-04T00:13:11.150Z,4.67
2019-03-04T00:18:10.783Z,3.17
2019-03-04T00:23:29.671Z,4.90
2019-03-04T00:28:29.323Z,3.17
2019-03-04T00:33:28.983Z,3.80
2019-03-04T00:38:28.935Z,4.03
2019-03-04T00:43:28.663Z,3.77
2019-03-04T00:48:28.302Z,3.57
2019-03-04T00:53:28.223Z,3.90
2019-03-04T00:58:27.862Z,4.23
2019-03-04T01:03:27.518Z,3.93
2019-03-04T01:08:27.146Z,4.07
2019-03-04T01:13:26.781Z,4.00
2019-03-04T01:18:26.497Z,4.17
2019-03-04T01:23:26.151Z,3.90
2019-03-04T01:28:25.794Z,4.10
2019-03-04T01:33:25.749Z,3.57
2019-03-04T01:38:25.391Z,3.67
2019-03-04T01:43:25.102Z,4.30
2019-03-04T01:48:25.716Z,4.37
2019-03-04T01:53:25.434Z,2.70
2019-03-04T01:58:26.064Z,3.73
2019-03-04T02:03:25.950Z,2.73
2019-03-04T02:08:25.614Z,3.73
2019-03-04T02:13:25.282Z,3.00
2019-03-04T02:18:24.920Z,3.20
2019-03-04T02:23:25.071Z,3.53
2019-03-04T02:28:24.753Z,3.80
2019-03-04T02:33:24.472Z,3.10
2019-03-04T02:38:24.122Z,3.00
2019-03-04T02:43:23.748Z,2.80
2019-03-04T02:48:23.618Z,3.87
2019-03-04T02:53:23.355Z,3.40
2019-03-04T02:58:23.292Z,2.30
2019-03-04T03:03:22.899Z,2.87
2019-03-04T03:08:22.862Z,2.33
2019-03-04T03:13:22.498Z,2.70
2019-03-04T03:18:22.146Z,2.50
2019-03-04T03:23:21.790Z,3.90
2019-03-04T03:28:21.415Z,2.90
2019-03-04T03:33:21.077Z,2.87
2019-03-04T03:38:20.690Z,2.63
2019-03-04T03:43:20.599Z,3.03
2019-03-04T03:48:20.532Z,2.70
2019-03-04T03:53:20.156Z,2.43
2019-03-04T03:58:19.841Z,2.80
2019-03-04T04:03:19.459Z,2.80
2019-03-04T04:08:19.118Z,2.27
2019-03-04T04:13:19.035Z,2.57
2019-03-04T04:18:18.657Z,2.50
2019-03-04T04:23:18.282Z,3.23
2019-03-04T04:28:31.242Z,2.87
2019-03-04T04:33:32.597Z,2.57
2019-03-04T04:38:51.705Z,2.73
2019-03-04T04:43:51.325Z,2.27
2019-03-04T04:48:50.937Z,2.30
2019-03-04T04:53:50.561Z,2.80
2019-03-04T04:58:50.188Z,2.80
2019-03-04T05:03:50.034Z,2.60
2019-03-04T05:08:49.681Z,3.50
2019-03-04T05:13:49.329Z,2.40
2019-03-04T05:18:49.225Z,2.50
2019-03-04T05:23:48.842Z,2.27
2019-03-04T05:28:48.454Z,3.30
2019-03-04T05:33:48.066Z,2.63
2019-03-04T05:38:47.694Z,2.80
2019-03-04T05:43:47.326Z,2.53
2019-03-04T05:48:46.928Z,2.70
2019-03-04T05:53:46.653Z,2.90
2019-03-04T05:58:46.277Z,2.20
2019-03-04T06:03:47.040Z,2.03
2019-03-04T06:08:46.738Z,2.67
2019-03-04T06:13:46.699Z,2.67
2019-03-04T06:18:46.673Z,3.00
2019-03-04T06:23:46.361Z,3.00
2019-03-04T06:28:45.976Z,2.47
2019-03-04T06:33:45.581Z,3.33
2019-03-04T06:38:45.213Z,2.80
2019-03-04T06:43:44.845Z,2.87
2019-03-04T06:48:44.471Z,2.60
2019-03-04T06:53:53.701Z,2.90
2019-03-04T06:58:58.713Z,2.57
2019-03-04T07:04:25.994Z,3.40
2019-03-04T07:09:25.626Z,2.23
2019-03-04T07:14:25.412Z,2.20
2019-03-04T07:19:27.842Z,2.10
2019-03-04T07:24:27.475Z,2.00
2019-03-04T07:29:27.106Z,1.87
2019-03-04T07:34:26.761Z,2.27
2019-03-04T07:39:26.433Z,1.70
2019-03-04T07:44:26.053Z,1.70
2019-03-04T07:49:26.774Z,1.90
2019-03-04T07:54:26.717Z,1.70
2019-03-04T07:59:26.685Z,1.63
2019-03-04T08:04:26.569Z,1.47
2019-03-04T08:10:03.041Z,1.60
2019-03-04T08:15:02.728Z,1.80
2019-03-04T08:20:04.180Z,1.60
2019-03-04T08:25:04.157Z,1.67
2019-03-04T08:30:04.237Z,1.67
2019-03-04T08:35:05.977Z,1.87
2019-03-04T08:40:06.424Z,1.33
2019-03-04T08:45:06.418Z,1.47
2019-03-04T08:50:06.769Z,2.43
2019-03-04T08:55:07.116Z,1.80
2019-03-04T09:00:11.162Z,0.70
2019-03-04T09:05:11.461Z,0.80
2019-03-04T09:10:23.825Z,0.90
2019-03-04T09:15:24.157Z,0.90
2019-03-04T09:20:24.248Z,0.70
2019-03-04T09:25:38.874Z,1.03
2019-03-04T09:30:38.517Z,0.70
2019-03-04T09:35:38.268Z,0.70
2019-03-04T09:40:38.023Z,0.70
2019-03-04T09:45:39.363Z,0.60
2019-03-04T09:50:40.146Z,0.70
2019-03-04T09:55:39.784Z,0.70
2019-03-04T10:01:11.898Z,0.60
2019-03-04T10:07:04.910Z,0.70
2019-03-04T10:12:12.802Z,0.80
2019-03-04T10:17:59.386Z,0.60
2019-03-04T10:23:10.156Z,0.97
2019-03-04T10:28:35.849Z,0.80
2019-03-04T10:34:10.086Z,0.70
2019-03-04T10:39:30.719Z,0.50
2019-03-04T10:45:04.353Z,0.67
2019-03-04T10:50:07.316Z,0.70
2019-03-04T10:55:08.145Z,0.80
2019-03-04T11:00:17.244Z,0.80
2019-03-04T11:05:16.857Z,0.97
2019-03-04T11:10:16.533Z,0.80
2019-03-04T11:15:18.854Z,0.90
2019-03-04T11:20:18.466Z,1.00
2019-03-04T11:25:19.130Z,0.80
2019-03-04T11:30:20.738Z,1.10
2019-03-04T11:35:20.357Z,0.80
2019-03-04T11:40:27.007Z,0.70
2019-03-04T11:45:26.729Z,0.60
2019-03-04T11:50:26.867Z,1.00
2019-03-04T11:55:27.379Z,1.00
2019-03-04T12:00:49.713Z,1.37
2019-03-04T12:05:49.350Z,1.20
2019-03-04T12:10:49.021Z,1.20
2019-03-04T12:15:48.853Z,1.80
2019-03-04T12:20:48.526Z,1.60
2019-03-04T12:25:48.205Z,0.90
2019-03-04T12:30:48.233Z,0.83
2019-03-04T12:35:47.933Z,0.90
2019-03-04T12:40:47.574Z,0.70
2019-03-04T12:45:47.213Z,0.80
2019-03-04T12:50:46.875Z,0.60
2019-03-04T12:55:46.486Z,0.80
2019-03-04T13:00:46.135Z,0.60
2019-03-04T13:05:46.018Z,0.60
2019-03-04T13:10:45.729Z,0.80
2019-03-04T13:15:45.454Z,0.90
2019-03-04T13:20:45.409Z,0.87
2019-03-04T13:25:45.048Z,0.80
2019-03-04T13:30:44.689Z,0.80
2019-03-04T13:35:44.438Z,0.90
2019-03-04T13:40:44.245Z,0.60
2019-03-04T13:45:44.350Z,0.93
2019-03-04T13:50:44.150Z,0.80
2019-03-04T13:55:43.845Z,0.70
2019-03-04T14:00:43.633Z,1.17
2019-03-04T14:05:43.770Z,0.90
2019-03-04T14:10:43.465Z,0.90
2019-03-04T14:15:43.097Z,0.80
2019-03-04T14:20:42.795Z,1.07
2019-03-04T14:25:42.490Z,1.30
2019-03-04T14:30:42.447Z,1.63
2019-03-04T14:35:42.237Z,1.43
2019-03-04T14:40:42.290Z,1.30
2019-03-04T14:45:41.950Z,1.20
2019-03-04T14:50:41.581Z,0.80
2019-03-04T14:55:41.206Z,1.10
2019-03-04T15:00:42.204Z,0.80
2019-03-04T15:05:41.901Z,1.00
2019-03-04T15:10:41.597Z,1.20
2019-03-04T15:15:41.370Z,0.97
2019-03-04T15:20:41.217Z,1.07
2019-03-04T15:25:41.221Z,1.30
2019-03-04T15:30:41.715Z,1.13
2019-03-04T15:35:41.393Z,1.33
2019-03-04T15:40:41.215Z,1.10
2019-03-04T15:45:44.294Z,2.43
2019-03-04T15:50:43.999Z,0.90
2019-03-04T15:55:44.673Z,1.10
2019-03-04T16:00:44.383Z,2.33
2019-03-04T16:05:44.424Z,1.20
2019-03-04T16:10:44.133Z,2.20
2019-03-04T16:15:44.849Z,1.10
2019-03-04T16:20:44.916Z,1.20
2019-03-04T16:25:45.477Z,1.30
2019-03-04T16:30:46.757Z,1.60
2019-03-04T16:35:46.737Z,0.80
2019-03-04T16:40:46.541Z,1.20
2019-03-04T16:45:46.245Z,1.10
2019-03-04T16:50:47.336Z,1.07
2019-03-04T16:55:46.978Z,1.53
2019-03-04T17:00:47.782Z,1.63
2019-03-04T17:05:47.586Z,1.43
2019-03-04T17:10:47.361Z,1.23
2019-03-04T17:15:47.952Z,1.30
2019-03-04T17:20:47.569Z,1.33
2019-03-04T17:25:47.465Z,1.03
2019-03-04T17:30:47.190Z,1.73
2019-03-04T17:35:46.981Z,1.80
2019-03-04T17:40:46.922Z,1.90
2019-03-04T17:45:46.650Z,2.00
2019-03-04T17:50:46.373Z,2.27
2019-03-04T17:55:46.220Z,2.13
2019-03-04T18:00:51.710Z,1.40
2019-03-04T18:05:52.105Z,1.80
2019-03-04T18:10:51.801Z,2.17
2019-03-04T18:15:51.762Z,1.83
2019-03-04T18:20:51.392Z,1.53
2019-03-04T18:26:08.270Z,2.20
2019-03-04T18:31:19.658Z,2.33
2019-03-04T18:36:43.994Z,2.50
2019-03-04T18:42:07.133Z,1.77
2019-03-04T18:47:48.305Z,1.70
2019-03-04T18:52:49.841Z,1.47
2019-03-04T18:57:49.473Z,2.10
2019-03-04T19:02:49.437Z,2.47
2019-03-04T19:07:49.434Z,2.53
2019-03-04T19:12:49.133Z,1.80
2019-03-04T19:17:48.892Z,3.02
2019-03-04T19:22:50.185Z,2.33
2019-03-04T19:27:49.973Z,2.17
2019-03-04T19:32:49.993Z,1.43
2019-03-04T19:37:49.607Z,2.30
2019-03-04T19:42:49.252Z,2.63
2019-03-04T19:47:49.178Z,2.07
2019-03-04T19:52:49.263Z,1.23
2019-03-04T19:57:48.969Z,0.73
2019-03-04T20:02:49.345Z,1.17
2019-03-04T20:07:49.326Z,1.30
2019-03-04T20:12:49.073Z,1.30
2019-03-04T20:17:48.793Z,2.20
2019-03-04T20:22:49.686Z,1.73
2019-03-04T20:27:49.374Z,2.33
2019-03-04T20:32:49.074Z,1.50
2019-03-04T20:37:50.913Z,1.93
2019-03-04T20:42:50.505Z,1.23
2019-03-04T20:47:51.258Z,1.93
2019-03-04T20:52:52.325Z,1.70
2019-03-04T20:57:52.102Z,1.80
2019-03-04T21:02:52.757Z,2.30
2019-03-04T21:07:52.454Z,2.50
2019-03-04T21:12:53.881Z,1.93
2019-03-04T21:17:53.653Z,1.93
2019-03-04T21:22:53.466Z,2.30
2019-03-04T21:27:54.703Z,1.90
2019-03-04T21:33:10.958Z,1.10
2019-03-04T21:38:10.891Z,3.07
2019-03-04T21:43:20.483Z,2.20
2019-03-04T21:48:32.574Z,1.83
2019-03-04T21:53:36.711Z,2.60
2019-03-04T21:58:36.784Z,2.10
2019-03-04T22:03:37.038Z,1.90
2019-03-04T22:08:37.006Z,1.40
2019-03-04T22:13:37.120Z,3.17
2019-03-04T22:18:37.211Z,2.07
2019-03-04T22:23:37.133Z,2.70
2019-03-04T22:28:37.066Z,3.03
2019-03-04T22:33:36.943Z,3.20
2019-03-04T22:38:36.650Z,2.63
2019-03-04T22:43:36.272Z,2.73
2019-03-04T22:48:36.152Z,3.20
2019-03-04T22:53:36.022Z,4.37
2019-03-04T22:58:35.726Z,3.00
2019-03-04T23:03:35.454Z,2.73
2019-03-04T23:08:35.235Z,2.80
2019-03-04T23:14:10.386Z,2.80
2019-03-04T23:19:10.394Z,2.80
2019-03-04T23:24:10.309Z,2.80
2019-03-04T23:29:10.210Z,2.00
2019-03-04T23:34:09.912Z,3.20
2019-03-04T23:39:09.686Z,2.47
2019-03-04T23:44:09.534Z,2.27
2019-03-04T23:49:10.432Z,3.27
2019-03-04T23:54:10.045Z,3.50
2019-03-04T23:59:09.659Z,2.37
